Time;durP1;ratioP1;P1;durP2;ratioP2;P2;SDS_P1;SDS_P2;PMS_P1;PMS_P2;Temp;Humidity;BMP_temperature;BMP_pressure;BME280_temperature;BME280_humidity;BME280_pressure;Samples;Min_cycle;Max_cycle;Signal;HPM_P1;HPM_P2
2023/10/08 00:00:42;;;;;;;24.00;20.83;;;17.00;99.90;;;;;;4936179;28;20039;-73
2023/10/08 00:02:46;;;;;;;20.88;18.83;;;17.00;99.90;;;;;;4932309;28;20646;-72
2023/10/08 00:05:17;;;;;;;22.42;20.08;;;17.00;99.90;;;;;;4915419;28;20550;-72
2023/10/08 00:07:44;;;;;;;28.85;20.55;;;17.00;99.90;;;;;;4938102;28;20410;-73
2023/10/08 00:10:12;;;;;;;22.67;20.23;;;17.00;99.90;;;;;;4915720;28;20047;-73
2023/10/08 00:12:39;;;;;;;29.77;20.08;;;17.00;99.90;;;;;;4919740;28;20055;-72
2023/10/08 00:15:10;;;;;;;26.13;21.33;;;17.00;99.90;;;;;;4931528;28;20126;-72
2023/10/08 00:17:37;;;;;;;21.83;19.40;;;17.00;99.90;;;;;;4934540;28;20067;-73
2023/10/08 00:20:04;;;;;;;26.92;20.15;;;17.00;99.90;;;;;;4934484;28;20047;-72
2023/10/08 00:22:35;;;;;;;24.38;19.35;;;17.00;99.90;;;;;;4910134;28;20155;-73
2023/10/08 00:25:11;;;;;;;20.95;18.92;;;17.00;99.90;;;;;;4931811;28;20055;-72
2023/10/08 00:27:38;;;;;;;25.60;19.70;;;17.00;99.90;;;;;;4917247;28;20062;-73
2023/10/08 00:30:17;;;;;;;23.58;20.00;;;17.00;99.90;;;;;;4921046;28;20065;-73
2023/10/08 00:32:44;;;;;;;22.70;20.42;;;17.00;99.90;;;;;;4902080;28;20082;-73
2023/10/08 00:35:15;;;;;;;25.33;20.25;;;17.00;99.90;;;;;;4929033;28;20047;-74
2023/10/08 00:37:44;;;;;;;21.35;19.08;;;17.00;99.90;;;;;;4932115;28;20265;-73
2023/10/08 00:40:13;;;;;;;23.98;20.00;;;16.90;99.90;;;;;;4929546;28;20124;-73
2023/10/08 00:42:45;;;;;;;22.70;20.38;;;16.90;99.90;;;;;;4927670;28;20071;-73
2023/10/08 00:45:19;;;;;;;22.95;20.58;;;16.90;99.90;;;;;;4930209;28;20529;-74
2023/10/08 00:47:47;;;;;;;25.63;20.50;;;16.90;99.90;;;;;;4931558;28;20043;-74
2023/10/08 00:50:21;;;;;;;23.88;21.35;;;16.90;99.90;;;;;;4930053;28;20224;-74
2023/10/08 00:53:01;;;;;;;29.27;20.95;;;16.90;99.90;;;;;;4932394;28;20065;-72
2023/10/08 00:55:29;;;;;;;25.52;20.63;;;16.90;99.90;;;;;;4915764;28;20119;-73
2023/10/08 00:58:08;;;;;;;23.48;20.10;;;16.90;99.90;;;;;;4933217;28;20071;-75
2023/10/08 01:00:40;;;;;;;22.38;19.65;;;16.80;99.90;;;;;;4930532;28;20043;-73
2023/10/08 01:03:14;;;;;;;21.83;19.70;;;16.90;99.90;;;;;;4932548;28;20063;-73
2023/10/08 01:05:46;;;;;;;;;;;16.80;99.90;;;;;;4932403;28;20060;-74
2023/10/08 01:08:22;;;;;;;22.67;19.00;;;16.80;99.90;;;;;;4918982;28;20017;-71
2023/10/08 01:10:58;;;;;;;22.33;19.95;;;16.80;99.90;;;;;;4926682;28;20150;-73
2023/10/08 01:13:26;;;;;;;22.70;19.65;;;16.70;99.90;;;;;;4914815;28;20659;-71
2023/10/08 01:15:55;;;;;;;31.13;20.58;;;16.70;99.90;;;;;;4927311;28;20043;-70
2023/10/08 01:18:30;;;;;;;26.73;20.33;;;16.60;99.90;;;;;;4931394;28;20256;-72
2023/10/08 01:21:04;;;;;;;32.35;19.92;;;16.60;99.90;;;;;;4914143;28;20054;-72
2023/10/08 01:23:31;;;;;;;24.02;18.70;;;16.50;99.90;;;;;;4903704;28;20138;-72
2023/10/08 01:26:10;;;;;;;29.60;20.23;;;16.50;99.90;;;;;;4918757;28;20846;-72
2023/10/08 01:28:38;;;;;;;24.25;18.75;;;16.50;99.90;;;;;;4934997;28;20047;-72
2023/10/08 01:31:07;;;;;;;23.30;17.58;;;16.50;99.90;;;;;;4927441;28;20446;-71
2023/10/08 01:33:47;;;;;;;27.30;18.55;;;16.40;99.90;;;;;;4916646;28;20054;-71
2023/10/08 01:36:14;;;;;;;26.10;17.70;;;16.30;99.90;;;;;;4930918;28;20043;-69
2023/10/08 01:38:41;;;;;;;26.63;18.25;;;16.30;99.90;;;;;;4933474;28;20050;-70
2023/10/08 01:41:29;;;;;;;30.38;18.65;;;16.20;99.90;;;;;;4931899;28;20046;-70
2023/10/08 01:43:58;;;;;;;32.50;17.92;;;16.20;99.90;;;;;;4930571;28;20054;-70
2023/10/08 01:46:25;;;;;;;32.92;18.48;;;16.10;99.90;;;;;;4918985;29;20035;-68
2023/10/08 01:49:14;;;;;;;34.17;18.83;;;16.10;99.90;;;;;;4925972;28;20092;-70
2023/10/08 01:51:46;;;;;;;28.48;18.75;;;16.10;99.90;;;;;;4935975;28;20142;-71
2023/10/08 01:54:17;;;;;;;33.15;19.23;;;16.10;99.90;;;;;;4904327;28;20058;-68
2023/10/08 01:56:44;;;;;;;32.53;18.45;;;16.10;99.90;;;;;;4933599;28;20071;-70
2023/10/08 01:59:15;;;;;;;35.20;18.50;;;16.00;99.90;;;;;;4918836;28;20138;-69
2023/10/08 02:01:45;;;;;;;31.08;18.17;;;16.00;99.90;;;;;;4913754;28;20106;-72
2023/10/08 02:04:13;;;;;;;32.97;18.55;;;16.00;99.90;;;;;;4921153;28;20063;-71
2023/10/08 02:06:40;;;;;;;38.25;18.80;;;15.90;99.90;;;;;;4936796;28;20043;-70
2023/10/08 02:09:07;;;;;;;35.70;18.80;;;16.00;99.90;;;;;;4919251;28;20043;-71
2023/10/08 02:11:46;;;;;;;31.52;18.60;;;15.90;99.90;;;;;;4932170;28;20043;-70
2023/10/08 02:14:15;;;;;;;36.15;18.52;;;15.90;99.90;;;;;;4931465;28;20226;-70
2023/10/08 02:16:44;;;;;;;33.28;18.88;;;15.90;99.90;;;;;;4919754;28;20134;-70
2023/10/08 02:19:11;;;;;;;35.67;18.92;;;15.90;99.90;;;;;;4936560;28;20114;-71
2023/10/08 02:21:42;;;;;;;35.75;19.55;;;15.90;99.90;;;;;;4913095;28;20062;-70
2023/10/08 02:24:11;;;;;;;32.65;18.95;;;15.90;99.90;;;;;;4932252;28;20039;-69
2023/10/08 02:26:39;;;;;;;41.90;21.58;;;15.90;99.90;;;;;;4934257;28;20143;-70
2023/10/08 02:29:10;;;;;;;41.78;21.08;;;15.90;99.90;;;;;;4921051;28;20379;-70
2023/10/08 02:31:39;;;;;;;41.05;20.77;;;15.80;99.90;;;;;;4934623;28;20390;-69
2023/10/08 02:34:09;;;;;;;40.58;21.42;;;15.80;99.90;;;;;;4935363;28;20536;-70
2023/10/08 02:36:37;;;;;;;39.42;20.70;;;15.80;99.90;;;;;;4934590;28;20844;-71
2023/10/08 02:39:13;;;;;;;34.90;22.45;;;15.80;99.90;;;;;;4914202;28;20043;-70
2023/10/08 02:41:50;;;;;;;43.83;21.90;;;15.80;99.90;;;;;;4932587;28;20049;-69
2023/10/08 02:44:17;;;;;;;47.15;24.10;;;15.80;99.90;;;;;;4916192;28;20090;-69
2023/10/08 02:46:47;;;;;;;17.25;10.45;;;15.80;99.90;;;;;;4937098;28;20039;-70
2023/10/08 02:49:22;;;;;;;8.00;7.40;;;15.10;99.90;;;;;;4936849;28;20043;-71
2023/10/08 02:51:53;;;;;;;9.77;8.93;;;14.60;99.90;;;;;;4931350;28;20043;-70
2023/10/08 02:54:23;;;;;;;10.05;9.07;;;14.40;99.90;;;;;;4916964;28;20142;-70
2023/10/08 02:56:55;;;;;;;9.88;8.73;;;14.40;99.90;;;;;;4934301;28;20051;-69
2023/10/08 02:59:22;;;;;;;7.75;7.10;;;14.10;99.90;;;;;;4914779;28;20059;-70
2023/10/08 03:01:50;;;;;;;8.02;7.50;;;13.70;99.90;;;;;;4932787;28;20123;-70
2023/10/08 03:04:19;;;;;;;7.90;7.30;;;13.80;99.90;;;;;;4903619;28;20130;-69
2023/10/08 03:06:50;;;;;;;7.57;6.97;;;13.70;99.90;;;;;;4934171;28;20361;-69
2023/10/08 03:09:22;;;;;;;7.30;6.72;;;13.70;99.90;;;;;;4913652;28;20051;-69
2023/10/08 03:11:50;;;;;;;6.95;6.35;;;13.70;99.90;;;;;;4933216;28;20043;-73
2023/10/08 03:14:26;;;;;;;7.22;5.78;;;13.40;99.90;;;;;;4917953;28;20059;-71
2023/10/08 03:17:03;;;;;;;4.65;4.35;;;13.20;99.90;;;;;;4917418;28;20051;-73
2023/10/08 03:19:30;;;;;;;4.63;4.22;;;13.00;99.90;;;;;;4933225;28;20645;-72
2023/10/08 03:21:57;;;;;;;4.82;4.38;;;13.00;99.90;;;;;;4935955;28;20051;-71
2023/10/08 03:24:58;;;;;;;5.40;5.00;;;12.90;99.90;;;;;;4913899;28;20114;-71
2023/10/08 03:27:20;;;;;;;6.88;5.68;;;12.80;99.90;;;;;;4931111;28;20046;-70
2023/10/08 03:29:47;;;;;;;7.20;6.50;;;12.80;99.90;;;;;;4920145;28;20053;-72
2023/10/08 03:32:18;;;;;;;6.60;5.88;;;12.70;99.90;;;;;;4930255;28;20055;-71
2023/10/08 03:34:48;;;;;;;7.18;6.40;;;12.70;99.90;;;;;;4935513;28;20093;-71
2023/10/08 03:37:20;;;;;;;8.40;7.18;;;12.70;99.90;;;;;;4933292;28;20062;-71
2023/10/08 03:39:51;;;;;;;7.82;7.03;;;12.70;99.90;;;;;;4935891;28;20138;-71
2023/10/08 03:42:29;;;;;;;9.25;8.25;;;12.70;99.90;;;;;;4930200;28;20390;-72
2023/10/08 03:44:56;;;;;;;8.27;7.47;;;12.70;99.90;;;;;;4932763;28;20086;-71
2023/10/08 03:47:26;;;;;;;8.95;7.75;;;12.70;99.90;;;;;;4916273;28;20054;-70
2023/10/08 03:49:54;;;;;;;9.45;8.38;;;12.60;99.90;;;;;;4917442;28;20036;-71
2023/10/08 03:52:23;;;;;;;10.82;8.50;;;12.60;99.90;;;;;;4917693;28;20043;-71
2023/10/08 03:55:04;;;;;;;10.90;8.35;;;12.50;99.90;;;;;;4933041;28;20074;-71
2023/10/08 03:57:44;;;;;;;11.80;9.27;;;12.30;99.90;;;;;;4930505;28;20043;-71
2023/10/08 04:00:18;;;;;;;11.07;8.35;;;12.30;99.90;;;;;;4934729;28;20047;-70
2023/10/08 04:02:55;;;;;;;8.00;7.20;;;12.20;99.90;;;;;;4913983;28;20058;-71
2023/10/08 04:05:32;;;;;;;8.85;7.78;;;12.10;99.90;;;;;;4918260;28;20047;-70
2023/10/08 04:08:16;;;;;;;7.68;6.70;;;12.10;99.90;;;;;;4931869;28;20046;-70
2023/10/08 04:13:14;;;;;;;5.55;5.05;;;12.20;99.90;;;;;;4913515;29;20050;-69
2023/10/08 04:15:42;;;;;;;5.10;4.70;;;12.10;99.90;;;;;;4917581;28;20051;-71
2023/10/08 04:18:09;;;;;;;5.40;4.90;;;12.00;99.90;;;;;;4915320;29;20062;-70
2023/10/08 04:20:51;;;;;;;5.30;4.80;;;12.00;99.90;;;;;;4936048;28;20409;-70
2023/10/08 04:23:20;;;;;;;4.55;4.25;;;12.10;99.90;;;;;;4934920;28;20051;-70
2023/10/08 04:25:54;;;;;;;6.40;4.22;;;12.10;99.90;;;;;;4923413;28;20464;-70
2023/10/08 04:28:22;;;;;;;3.97;3.67;;;12.00;99.90;;;;;;4931855;28;20574;-69
2023/10/08 04:30:50;;;;;;;3.15;2.95;;;11.90;99.90;;;;;;4904270;28;20066;-70
2023/10/08 04:33:19;;;;;;;2.55;2.45;;;11.80;99.90;;;;;;4916716;28;20578;-71
2023/10/08 04:35:51;;;;;;;2.60;2.50;;;11.70;99.90;;;;;;4929768;28;20047;-70
2023/10/08 04:38:25;;;;;;;2.65;2.45;;;11.60;99.90;;;;;;4917562;29;20047;-70
2023/10/08 04:40:53;;;;;;;2.13;2.03;;;11.50;99.90;;;;;;4930406;28;20047;-69
2023/10/08 04:43:30;;;;;;;2.10;2.00;;;11.30;99.90;;;;;;4916127;28;20102;-71
2023/10/08 04:45:58;;;;;;;1.95;1.85;;;11.20;99.90;;;;;;4925833;28;20067;-71
2023/10/08 04:48:29;;;;;;;1.77;1.77;;;11.10;99.90;;;;;;4929588;28;20048;-70
2023/10/08 04:50:59;;;;;;;1.50;1.50;;;11.00;99.90;;;;;;4920428;28;20127;-70
2023/10/08 04:53:31;;;;;;;2.00;1.90;;;10.90;99.90;;;;;;4918143;28;20051;-70
2023/10/08 04:56:05;;;;;;;2.30;2.20;;;11.00;99.90;;;;;;4913497;28;20055;-70
2023/10/08 04:58:36;;;;;;;2.50;2.30;;;11.10;99.90;;;;;;4928777;28;20066;-70
2023/10/08 05:01:20;;;;;;;2.30;2.20;;;11.10;99.90;;;;;;4931381;28;20061;-71
2023/10/08 05:12:21;;;;;;;1.85;1.75;;;11.00;99.90;;;;;;4908369;28;20097;-69
2023/10/08 05:15:21;;;;;;;1.58;1.58;;;11.10;99.90;;;;;;4918086;28;20054;-70
2023/10/08 05:26:09;;;;;;;1.90;1.80;;;10.90;99.90;;;;;;4931632;28;20138;-71
2023/10/08 05:28:46;;;;;;;4.18;1.77;;;10.80;99.90;;;;;;4925464;28;20470;-70
2023/10/08 05:36:34;;;;;;;8.23;2.47;;;10.20;99.90;;;;;;4922826;28;20043;-69
2023/10/08 05:39:29;;;;;;;12.45;2.35;;;10.10;99.90;;;;;;4935080;28;20047;-69
2023/10/08 05:41:52;;;;;;;8.80;2.88;;;10.10;99.90;;;;;;4931247;28;20051;-70
2023/10/08 05:46:51;;;;;;;6.43;3.05;;;10.20;99.90;;;;;;4931761;28;20075;-69
2023/10/08 06:13:29;;;;;;;7.10;3.15;;;10.50;99.90;;;;;;4917552;28;20514;-70
2023/10/08 06:18:25;;;;;;;4.93;2.60;;;10.40;99.90;;;;;;4932556;28;20137;-71
2023/10/08 06:20:58;;;;;;;6.05;2.53;;;10.30;99.90;;;;;;4933936;28;20142;-70
2023/10/08 06:23:28;;;;;;;8.88;2.75;;;10.30;99.90;;;;;;4915605;28;20054;-69
2023/10/08 06:26:05;;;;;;;4.00;2.22;;;10.30;99.90;;;;;;4916695;28;20039;-70
2023/10/08 06:28:34;;;;;;;3.85;2.58;;;10.10;99.90;;;;;;4903766;28;20053;-70
2023/10/08 06:31:11;;;;;;;2.63;2.47;;;10.10;99.90;;;;;;4934545;28;20050;-70
2023/10/08 06:33:40;;;;;;;5.45;2.40;;;10.10;99.90;;;;;;4929744;28;20059;-71
2023/10/08 06:38:49;;;;;;;7.30;3.70;;;10.00;99.90;;;;;;4931253;28;20043;-70
2023/10/08 06:41:19;;;;;;;9.13;4.10;;;9.80;99.90;;;;;;4915275;29;20056;-71
2023/10/08 06:44:13;;;;;;;4.75;4.35;;;9.60;99.90;;;;;;4934786;28;20442;-69
2023/10/08 06:46:41;;;;;;;6.47;4.90;;;9.60;99.90;;;;;;4915329;28;20043;-70
2023/10/08 06:49:13;;;;;;;6.55;5.75;;;9.30;99.90;;;;;;4933685;28;20051;-70
2023/10/08 06:51:43;;;;;;;11.48;6.50;;;9.30;99.90;;;;;;4931059;28;20043;-71
2023/10/08 06:54:13;;;;;;;7.45;6.70;;;9.40;99.90;;;;;;4936987;28;20055;-74
2023/10/08 06:56:48;;;;;;;9.10;6.90;;;9.40;99.90;;;;;;4931623;28;20577;-70
2023/10/08 06:59:16;;;;;;;11.50;7.60;;;9.30;99.90;;;;;;4915548;28;20055;-70
2023/10/08 07:01:46;;;;;;;8.10;7.50;;;9.30;99.90;;;;;;4916804;28;20057;-71
2023/10/08 07:04:14;;;;;;;10.93;8.65;;;9.40;99.90;;;;;;4936773;28;20066;-70
2023/10/08 07:06:50;;;;;;;10.70;9.80;;;9.40;99.90;;;;;;4918472;28;20058;-70
2023/10/08 07:09:28;;;;;;;10.68;10.07;;;9.40;99.90;;;;;;4933311;28;20051;-70
2023/10/08 07:11:56;;;;;;;11.00;10.20;;;9.50;99.90;;;;;;4932247;28;20147;-70
2023/10/08 07:14:26;;;;;;;13.98;12.73;;;9.50;99.90;;;;;;4936715;28;20584;-70
2023/10/08 07:16:59;;;;;;;13.45;12.52;;;9.50;99.90;;;;;;4931158;28;20046;-70
2023/10/08 07:19:37;;;;;;;12.93;11.82;;;9.50;99.90;;;;;;4925134;29;20047;-71
2023/10/08 07:22:18;;;;;;;11.95;11.10;;;9.50;99.90;;;;;;4919147;28;20065;-70
2023/10/08 07:24:50;;;;;;;19.92;14.98;;;9.40;99.90;;;;;;4932153;28;20146;-70
2023/10/08 07:27:29;;;;;;;17.75;14.65;;;9.40;99.90;;;;;;4935457;28;20730;-71
2023/10/08 07:30:00;;;;;;;20.85;14.88;;;9.40;99.90;;;;;;4932216;28;20050;-71
2023/10/08 07:32:30;;;;;;;12.23;11.13;;;9.40;99.90;;;;;;4925155;28;20517;-70
2023/10/08 07:35:16;;;;;;;17.02;11.85;;;9.50;99.90;;;;;;4921910;28;20058;-71
2023/10/08 07:37:47;;;;;;;11.48;10.43;;;9.40;99.90;;;;;;4930289;28;20082;-71
2023/10/08 07:40:20;;;;;;;11.75;10.90;;;9.40;99.90;;;;;;4933924;28;20062;-71
2023/10/08 07:42:51;;;;;;;11.45;10.50;;;9.40;99.90;;;;;;4913128;28;20063;-71
2023/10/08 07:45:21;;;;;;;10.45;9.52;;;9.40;99.90;;;;;;4934760;28;20572;-71
2023/10/08 07:47:52;;;;;;;10.38;9.48;;;9.50;99.90;;;;;;4915042;28;20051;-70
2023/10/08 07:50:19;;;;;;;12.02;9.57;;;9.40;99.90;;;;;;4919313;29;20044;-71
2023/10/08 07:52:47;;;;;;;11.23;9.68;;;9.40;99.90;;;;;;4913960;28;20043;-71
2023/10/08 07:55:17;;;;;;;10.98;10.15;;;9.40;99.90;;;;;;4934204;28;20045;-71
2023/10/08 07:57:44;;;;;;;11.38;10.40;;;9.50;99.90;;;;;;4913006;28;20055;-71
2023/10/08 08:00:30;;;;;;;12.25;10.93;;;9.60;99.90;;;;;;4936343;28;20630;-71
2023/10/08 08:02:57;;;;;;;14.18;12.88;;;9.70;99.90;;;;;;4930466;28;20051;-71
2023/10/08 08:05:27;;;;;;;10.40;9.45;;;9.70;99.90;;;;;;4938605;28;20059;-72
2023/10/08 08:07:56;;;;;;;10.30;9.38;;;9.80;99.90;;;;;;4911168;28;20070;-71
2023/10/08 08:10:23;;;;;;;8.60;7.90;;;9.90;99.90;;;;;;4931643;28;20623;-72
2023/10/08 08:12:56;;;;;;;9.93;8.20;;;9.80;99.90;;;;;;4929480;28;20566;-70
2023/10/08 08:15:25;;;;;;;13.57;8.40;;;9.90;99.90;;;;;;4930864;28;20094;-69
2023/10/08 08:17:53;;;;;;;11.30;8.95;;;9.90;99.90;;;;;;4930386;28;20605;-70
2023/10/08 08:20:34;;;;;;;8.48;7.82;;;10.10;99.90;;;;;;4933015;28;20048;-71
2023/10/08 08:23:06;;;;;;;10.88;8.73;;;9.90;99.90;;;;;;4915136;28;20557;-70
2023/10/08 08:26:06;;;;;;;10.15;8.38;;;9.90;99.90;;;;;;4918907;29;20046;-72
2023/10/08 08:28:33;;;;;;;9.07;8.18;;;9.90;99.90;;;;;;4937145;28;20043;-73
2023/10/08 08:31:13;;;;;;;12.20;9.40;;;10.00;99.90;;;;;;4936878;28;20043;-73
2023/10/08 08:33:53;;;;;;;9.20;8.45;;;10.10;99.90;;;;;;4916478;28;20606;-73
2023/10/08 08:36:23;;;;;;;15.63;9.25;;;10.10;99.90;;;;;;4919876;29;20138;-73
2023/10/08 08:38:51;;;;;;;9.70;8.90;;;10.10;99.90;;;;;;4934204;28;20069;-73
2023/10/08 08:41:20;;;;;;;10.32;8.95;;;10.00;99.90;;;;;;4932768;28;20052;-72
2023/10/08 08:44:06;;;;;;;10.23;9.32;;;10.10;99.90;;;;;;4935591;28;20047;-72
2023/10/08 08:46:37;;;;;;;9.75;8.60;;;10.20;99.90;;;;;;4917695;29;20053;-72
2023/10/08 08:49:07;;;;;;;9.50;8.90;;;10.10;99.90;;;;;;4920799;28;20540;-72
2023/10/08 08:51:35;;;;;;;10.27;9.38;;;10.20;99.90;;;;;;4934461;28;20074;-73
2023/10/08 08:54:06;;;;;;;10.45;8.52;;;10.30;99.90;;;;;;4921524;28;20047;-72
2023/10/08 08:56:36;;;;;;;13.25;10.80;;;10.40;99.90;;;;;;4931398;28;20057;-72
2023/10/08 08:59:05;;;;;;;10.57;8.80;;;10.50;99.90;;;;;;4931154;28;20053;-73
2023/10/08 09:01:32;;;;;;;9.55;8.65;;;10.50;99.90;;;;;;4918936;29;20048;-72
2023/10/08 09:04:01;;;;;;;15.65;13.95;;;10.50;99.90;;;;;;4930440;28;21165;-73
2023/10/08 09:06:29;;;;;;;13.80;11.95;;;10.50;99.90;;;;;;4923947;29;20520;-71
2023/10/08 09:09:11;;;;;;;10.27;9.38;;;10.50;99.90;;;;;;4932683;28;20427;-70
2023/10/08 09:11:42;;;;;;;11.65;10.55;;;10.50;99.90;;;;;;4930734;28;20087;-70
2023/10/08 09:14:10;;;;;;;12.40;9.88;;;10.60;99.90;;;;;;4937662;28;20067;-70
2023/10/08 09:16:38;;;;;;;10.98;9.80;;;10.50;99.90;;;;;;4927007;29;20050;-71
2023/10/08 09:19:12;;;;;;;12.13;10.15;;;10.50;99.90;;;;;;4924101;28;20106;-72
2023/10/08 09:21:39;;;;;;;10.32;9.35;;;10.60;99.90;;;;;;4921127;29;20098;-72
2023/10/08 09:24:11;;;;;;;10.55;9.52;;;10.60;99.90;;;;;;4934349;28;20039;-71
2023/10/08 09:26:39;;;;;;;10.50;9.50;;;10.70;99.90;;;;;;4928144;29;20046;-70
2023/10/08 09:29:11;;;;;;;11.15;10.20;;;10.70;99.90;;;;;;4938709;28;20055;-71
2023/10/08 09:31:48;;;;;;;9.88;9.05;;;10.70;99.90;;;;;;4931701;28;20039;-71
2023/10/08 09:34:16;;;;;;;9.43;8.70;;;10.80;99.90;;;;;;4953203;28;20158;-72
2023/10/08 09:36:43;;;;;;;12.50;11.30;;;10.90;99.90;;;;;;4942753;28;20054;-70
2023/10/08 09:39:20;;;;;;;12.35;11.45;;;10.90;99.90;;;;;;4944628;28;20051;-72
2023/10/08 09:41:47;;;;;;;12.07;10.98;;;10.90;99.90;;;;;;4923349;28;21084;-72
2023/10/08 09:44:14;;;;;;;12.75;11.65;;;10.90;99.90;;;;;;4944339;28;20125;-72
2023/10/08 09:46:44;;;;;;;13.25;12.07;;;11.00;99.90;;;;;;4926857;29;20058;-73
2023/10/08 09:49:18;;;;;;;13.73;12.15;;;11.00;99.90;;;;;;4938605;28;20584;-73
2023/10/08 09:51:46;;;;;;;12.32;11.30;;;11.10;99.90;;;;;;4912173;28;20067;-71
2023/10/08 09:54:31;;;;;;;18.08;12.73;;;11.20;99.90;;;;;;4924388;28;20074;-73
2023/10/08 09:57:03;;;;;;;15.10;13.73;;;11.30;99.90;;;;;;4938760;28;20085;-72
2023/10/08 09:59:31;;;;;;;15.30;14.13;;;11.20;99.90;;;;;;4924980;29;20137;-73
2023/10/08 10:01:59;;;;;;;15.38;14.27;;;11.20;99.90;;;;;;4926927;28;20057;-71
2023/10/08 10:04:31;;;;;;;15.82;14.73;;;11.30;99.90;;;;;;4928129;29;20035;-71
2023/10/08 10:07:12;;;;;;;15.02;14.07;;;11.50;99.90;;;;;;4919001;28;20047;-70
2023/10/08 10:09:43;;;;;;;14.93;13.98;;;11.50;99.90;;;;;;4939174;28;20517;-72
2023/10/08 10:12:11;;;;;;;16.33;15.05;;;11.50;99.90;;;;;;4933326;28;20130;-71
2023/10/08 10:14:46;;;;;;;16.60;15.40;;;11.40;99.90;;;;;;4939118;28;20529;-71
2023/10/08 10:17:22;;;;;;;16.52;15.43;;;11.50;99.90;;;;;;4941351;28;20059;-71
2023/10/08 10:20:13;;;;;;;;;;;11.70;99.90;;;;;;4909603;28;20138;-71
2023/10/08 10:22:43;;;;;;;18.48;16.85;;;11.80;99.90;;;;;;4917933;29;19926;-73
2023/10/08 10:25:20;;;;;;;18.67;17.52;;;11.90;99.90;;;;;;4934971;28;20428;-72
2023/10/08 10:27:51;;;;;;;19.33;17.70;;;11.90;99.90;;;;;;4937733;28;20099;-70
2023/10/08 10:30:19;;;;;;;19.83;18.30;;;11.80;99.90;;;;;;4936872;28;20077;-74
2023/10/08 10:32:53;;;;;;;20.40;18.75;;;11.80;99.90;;;;;;4916063;28;20043;-72
2023/10/08 10:35:21;;;;;;;22.13;20.52;;;11.80;99.90;;;;;;4922022;28;20130;-72
2023/10/08 10:37:51;;;;;;;20.60;19.20;;;11.90;99.90;;;;;;4937866;28;20054;-70
2023/10/08 10:40:29;;;;;;;22.58;20.80;;;11.80;99.90;;;;;;4918168;29;20054;-73
2023/10/08 10:42:57;;;;;;;20.75;19.17;;;11.90;99.90;;;;;;4932854;28;20055;-72
2023/10/08 10:45:39;;;;;;;21.77;20.30;;;12.00;99.90;;;;;;4922875;29;20700;-70
2023/10/08 10:48:42;;;;;;;22.17;20.08;;;11.90;99.90;;;;;;4915312;28;20150;-71
2023/10/08 10:53:56;;;;;;;21.88;19.83;;;12.20;99.90;;;;;;4921046;29;20048;-72
2023/10/08 10:56:30;;;;;;;21.00;19.38;;;12.20;99.90;;;;;;4930241;28;20056;-72
2023/10/08 10:59:15;;;;;;;19.55;18.02;;;12.20;99.90;;;;;;4916540;28;20047;-72
2023/10/08 11:01:48;;;;;;;19.85;18.20;;;12.10;99.90;;;;;;4932769;28;20055;-72
2023/10/08 11:04:19;;;;;;;20.00;18.60;;;12.30;99.90;;;;;;4937685;28;20055;-72
2023/10/08 11:06:50;;;;;;;20.42;18.92;;;12.30;99.90;;;;;;4917527;29;20091;-73
2023/10/08 11:09:35;;;;;;;19.58;18.15;;;12.30;99.90;;;;;;4937857;28;20047;-73
2023/10/08 11:12:10;;;;;;;19.48;18.13;;;12.50;99.90;;;;;;4914832;28;20050;-72
2023/10/08 11:14:41;;;;;;;18.65;17.50;;;12.40;99.90;;;;;;4937906;28;20450;-72
2023/10/08 11:17:20;;;;;;;22.50;20.58;;;12.60;99.90;;;;;;4932349;28;20099;-71
2023/10/08 11:19:48;;;;;;;21.65;19.92;;;12.70;99.90;;;;;;4925488;29;20051;-73
2023/10/08 11:22:22;;;;;;;26.33;23.77;;;12.60;99.90;;;;;;4933960;28;20517;-72
2023/10/08 11:24:53;;;;;;;24.27;22.20;;;12.30;99.90;;;;;;4917805;29;20051;-72
2023/10/08 11:27:33;;;;;;;20.70;19.10;;;12.10;99.90;;;;;;4920563;29;20070;-73
2023/10/08 11:30:00;;;;;;;21.30;19.60;;;12.40;99.90;;;;;;4918635;28;20134;-73
2023/10/08 11:32:29;;;;;;;21.70;20.25;;;12.70;99.90;;;;;;4920621;29;20043;-73
2023/10/08 11:35:00;;;;;;;22.77;20.90;;;12.60;99.90;;;;;;4909393;28;20051;-73
2023/10/08 11:37:36;;;;;;;22.77;21.20;;;12.60;99.90;;;;;;4917351;29;20120;-72
2023/10/08 11:40:28;;;;;;;23.80;22.08;;;12.80;99.90;;;;;;4919073;28;20569;-73
2023/10/08 11:43:03;;;;;;;24.25;22.35;;;13.00;99.90;;;;;;4916748;28;20693;-72
2023/10/08 11:45:38;;;;;;;24.85;22.80;;;13.10;99.90;;;;;;4931808;28;20052;-73
2023/10/08 11:48:11;;;;;;;24.42;22.73;;;13.30;99.90;;;;;;4906070;28;20560;-72
2023/10/08 11:50:40;;;;;;;23.33;21.75;;;13.40;99.90;;;;;;4920991;28;20048;-73
2023/10/08 11:53:08;;;;;;;23.73;21.90;;;13.40;99.90;;;;;;4933547;28;20750;-73
2023/10/08 11:55:38;;;;;;;23.25;21.65;;;13.30;99.90;;;;;;4913196;29;20051;-72
2023/10/08 11:58:12;;;;;;;24.60;22.00;;;13.10;99.90;;;;;;4920918;28;20047;-72
2023/10/08 12:00:44;;;;;;;23.90;22.10;;;13.20;99.90;;;;;;4936686;28;20137;-73
2023/10/08 12:03:18;;;;;;;23.77;21.73;;;13.30;99.90;;;;;;4917967;28;20134;-73
2023/10/08 12:05:48;;;;;;;24.75;23.08;;;13.30;99.90;;;;;;4920041;29;20048;-73
2023/10/08 12:08:20;;;;;;;22.67;21.30;;;13.30;99.90;;;;;;4917731;28;20676;-74
2023/10/08 12:10:51;;;;;;;22.63;20.85;;;13.20;99.90;;;;;;4918895;29;20038;-73
2023/10/08 12:13:31;;;;;;;26.08;24.20;;;13.30;99.90;;;;;;4918750;28;20039;-74
2023/10/08 12:16:22;;;;;;;25.20;23.10;;;13.50;99.90;;;;;;4932023;28;20050;-73
2023/10/08 12:18:53;;;;;;;26.77;24.35;;;13.40;99.90;;;;;;4918500;28;20047;-72
2023/10/08 12:21:21;;;;;;;26.67;24.20;;;13.70;99.90;;;;;;4916554;28;20111;-72
2023/10/08 12:23:54;;;;;;;24.67;22.42;;;13.90;99.90;;;;;;4937152;28;20754;-73
2023/10/08 12:26:22;;;;;;;24.30;22.35;;;13.90;99.90;;;;;;4901353;28;20054;-73
2023/10/08 12:28:50;;;;;;;24.35;21.85;;;13.50;99.90;;;;;;4933844;28;20098;-72
2023/10/08 12:31:28;;;;;;;23.20;21.35;;;13.40;99.90;;;;;;4915529;28;20051;-72
2023/10/08 12:34:00;;;;;;;24.80;22.80;;;13.30;99.90;;;;;;4934636;28;20055;-71
2023/10/08 12:36:32;;;;;;;23.42;21.67;;;13.30;99.90;;;;;;4920420;29;20056;-72
2023/10/08 12:39:14;;;;;;;;;;;13.40;99.90;;;;;;4904344;28;20055;-72
2023/10/08 12:41:43;;;;;;;23.27;21.58;;;13.40;99.90;;;;;;4940171;29;19938;-71
2023/10/08 12:44:11;;;;;;;24.40;22.60;;;13.30;99.90;;;;;;4944276;28;20102;-71
2023/10/08 12:46:39;;;;;;;26.05;23.77;;;13.30;99.90;;;;;;4952952;28;20457;-72
2023/10/08 12:49:07;;;;;;;25.80;23.83;;;13.50;99.90;;;;;;4917497;28;20565;-73
2023/10/08 12:51:33;;;;;;;25.55;23.33;;;13.80;99.90;;;;;;4934995;28;20775;-73
2023/10/08 12:54:06;;;;;;;24.85;22.95;;;13.80;99.90;;;;;;4931504;28;20054;-73
2023/10/08 12:56:55;;;;;;;26.63;24.55;;;13.80;99.90;;;;;;4936311;28;20050;-72
2023/10/08 12:59:23;;;;;;;27.08;23.05;;;13.90;99.90;;;;;;4916377;28;20170;-71
2023/10/08 13:01:54;;;;;;;25.35;23.35;;;14.00;99.90;;;;;;4914716;28;20047;-72
2023/10/08 13:04:26;;;;;;;24.70;23.10;;;14.00;99.90;;;;;;4928687;28;20051;-72
2023/10/08 13:06:57;;;;;;;25.15;23.00;;;13.80;99.90;;;;;;4920992;28;20048;-72
2023/10/08 13:09:24;;;;;;;25.88;23.98;;;13.70;99.90;;;;;;4907490;28;20061;-73
2023/10/08 13:11:52;;;;;;;24.58;22.98;;;13.60;99.90;;;;;;4932836;28;20047;-72
2023/10/08 13:14:22;;;;;;;24.45;22.55;;;13.70;99.90;;;;;;4928356;28;20115;-73
2023/10/08 13:16:53;;;;;;;26.05;23.88;;;13.70;99.90;;;;;;4933457;28;20412;-71
2023/10/08 13:19:23;;;;;;;26.90;24.75;;;13.80;99.90;;;;;;4915282;28;21502;-72
2023/10/08 13:21:53;;;;;;;26.33;24.00;;;13.70;99.90;;;;;;4918550;28;20313;-73
2023/10/08 13:24:21;;;;;;;24.15;22.60;;;13.70;99.90;;;;;;4929185;28;20752;-72
2023/10/08 13:26:51;;;;;;;23.55;21.67;;;13.70;99.90;;;;;;4918748;29;20636;-72
2023/10/08 13:29:18;;;;;;;24.20;22.35;;;13.60;99.90;;;;;;4915928;28;20047;-72
2023/10/08 13:31:46;;;;;;;23.55;21.92;;;13.60;99.90;;;;;;4901420;29;20512;-73
2023/10/08 13:34:15;;;;;;;24.65;22.75;;;13.60;99.90;;;;;;4931260;28;20670;-73
2023/10/08 13:36:48;;;;;;;23.63;22.02;;;13.60;99.90;;;;;;4931019;28;20115;-73
2023/10/08 13:39:18;;;;;;;23.52;21.65;;;13.70;99.90;;;;;;4914152;28;20062;-73
2023/10/08 13:41:49;;;;;;;23.92;22.17;;;13.80;99.90;;;;;;4915600;29;20040;-72
2023/10/08 13:44:16;;;;;;;25.30;22.80;;;13.90;99.90;;;;;;4930447;28;20540;-72
2023/10/08 13:46:48;;;;;;;23.88;21.95;;;14.10;99.90;;;;;;4917975;29;20547;-71
2023/10/08 13:49:18;;;;;;;24.30;22.20;;;14.30;99.90;;;;;;4931212;28;20039;-73
2023/10/08 13:51:49;;;;;;;25.42;23.35;;;14.40;99.90;;;;;;4917399;29;20043;-73
2023/10/08 13:54:18;;;;;;;25.55;23.45;;;14.60;99.90;;;;;;4930468;28;20106;-73
2023/10/08 13:56:48;;;;;;;24.38;22.45;;;14.50;99.90;;;;;;4914368;29;20103;-73
2023/10/08 13:59:19;;;;;;;23.35;21.65;;;14.40;99.90;;;;;;4903639;28;20114;-73